HEAT 020500Z 03010KT CAVOK 25/14 Q1013 NOSIG
From batch tds/metars/production/2022/10/2/h05_m24_metars.cache.csv.gz
Observed at (about 1 hour ago)
Identifier HEAT
HEAT 020400Z 02012KT CAVOK 23/15 Q1013 NOSIG
From batch tds/metars/production/2022/10/2/h04_m25_metars.cache.csv.gz
Observed at (about 2 hours ago)
Identifier HEAT
HEAT 020300Z 01009KT CAVOK 23/15 Q1014 NOSIG
From batch tds/metars/production/2022/10/2/h03_m55_metars.cache.csv.gz
Observed at (about 3 hours ago)
Identifier HEAT
HEAT 020100Z 01006KT CAVOK 26/15 Q1014 NOSIG
From batch tds/metars/production/2022/10/2/h01_m29_metars.cache.csv.gz
Observed at (about 5 hours ago)
Identifier HEAT
HEAT 020000Z 36007KT CAVOK 27/15 Q1014 NOSIG
From batch tds/metars/production/2022/10/2/h00_m21_metars.cache.csv.gz
Observed at (about 6 hours ago)
Identifier HEAT
HEAT 012300Z 36008KT CAVOK 29/14 Q1014 NOSIG
From batch tds/metars/production/2022/10/1/h23_m23_metars.cache.csv.gz
Observed at (about 7 hours ago)
Identifier HEAT
HEAT 012200Z 01010KT CAVOK 30/14 Q1015 NOSIG
From batch tds/metars/production/2022/10/1/h22_m22_metars.cache.csv.gz
Observed at (about 8 hours ago)
Identifier HEAT
HEAT 012100Z 02011KT CAVOK 31/14 Q1015 NOSIG
From batch tds/metars/production/2022/10/1/h21_m29_metars.cache.csv.gz
Observed at (about 9 hours ago)
Identifier HEAT
HEAT 012000Z 01013KT CAVOK 32/13 Q1015 NOSIG
From batch tds/metars/production/2022/10/1/h20_m27_metars.cache.csv.gz
Observed at (about 10 hours ago)
Identifier HEAT
HEAT 011900Z 02010KT CAVOK 32/11 Q1015 NOSIG
From batch tds/metars/production/2022/10/1/h19_m51_metars.cache.csv.gz
Observed at (about 11 hours ago)
Identifier HEAT
HEAT 011800Z 01008KT CAVOK 34/09 Q1014 NOSIG
From batch tds/metars/production/2022/10/1/h18_m51_metars.cache.csv.gz
Observed at (about 12 hours ago)
Identifier HEAT
HEAT 011700Z 04014KT CAVOK 38/06 Q1012 NOSIG
From batch tds/metars/production/2022/10/1/h17_m24_metars.cache.csv.gz
Observed at (about 13 hours ago)
Identifier HEAT
HEAT 011600Z 03013KT CAVOK 39/06 Q1012 NOSIG
From batch tds/metars/production/2022/10/1/h16_m29_metars.cache.csv.gz
Observed at (about 14 hours ago)
Identifier HEAT
HEAT 011500Z 02017KT CAVOK 40/05 Q1013 NOSIG
From batch tds/metars/production/2022/10/1/h15_m59_metars.cache.csv.gz
Observed at (about 15 hours ago)
Identifier HEAT
HEAT 011400Z 03011KT CAVOK 41/04 Q1013 NOSIG
From batch tds/metars/production/2022/10/1/h14_m22_metars.cache.csv.gz
Observed at (about 16 hours ago)
Identifier HEAT
HEAT 011300Z 03010KT CAVOK 41/05 Q1013 NOSIG
From batch tds/metars/production/2022/10/1/h13_m52_metars.cache.csv.gz
Observed at (about 17 hours ago)
Identifier HEAT
HEAT 011000Z 03009KT CAVOK 37/11 Q1016 NOSIG
From batch tds/metars/production/2022/10/1/h10_m25_metars.cache.csv.gz
Observed at (about 20 hours ago)
Identifier HEAT
HEAT 010800Z 35012KT CAVOK 33/10 Q1016 NOSIG
From batch tds/metars/production/2022/10/1/h08_m29_metars.cache.csv.gz
Observed at (about 22 hours ago)
Identifier HEAT
HEAT 010700Z 35012KT CAVOK 31/11 Q1016 NOSIG
From batch tds/metars/production/2022/10/1/h07_m29_metars.cache.csv.gz
Observed at (about 23 hours ago)
Identifier HEAT
HEAT 010600Z 36010KT CAVOK 29/11 Q1016 NOSIG
From batch tds/metars/production/2022/10/1/h06_m55_metars.cache.csv.gz
Observed at (1 day ago)
Identifier HEAT
HEAT 010400Z 01009KT CAVOK 25/11 Q1015 NOSIG
From batch tds/metars/production/2022/10/1/h04_m47_metars.cache.csv.gz
Observed at (1 day ago)
Identifier HEAT
HEAT 010300Z 34009KT CAVOK 26/11 Q1015 NOSIG
From batch tds/metars/production/2022/10/1/h03_m52_metars.cache.csv.gz
Observed at (1 day ago)
Identifier HEAT
HEAT 010200Z 33008KT CAVOK 26/12 Q1015 NOSIG
From batch tds/metars/production/2022/10/1/h02_m24_metars.cache.csv.gz
Observed at (1 day ago)
Identifier HEAT
HEAT 302200Z 02009KT CAVOK 30/09 Q1014 NOSIG
From batch tds/metars/production/2022/9/30/h22_m28_metars.cache.csv.gz
Observed at (1 day ago)
Identifier HEAT
HEAT 302000Z 35009KT CAVOK 31/07 Q1013 NOSIG
From batch tds/metars/production/2022/9/30/h20_m24_metars.cache.csv.gz
Observed at (1 day ago)
Identifier HEAT
HEAT 301900Z 03010KT CAVOK 32/08 Q1013 NOSIG
From batch tds/metars/production/2022/9/30/h19_m27_metars.cache.csv.gz
Observed at (1 day ago)
Identifier HEAT
HEAT 301800Z 36010KT CAVOK 34/07 Q1013 NOSIG
From batch tds/metars/production/2022/9/30/h18_m54_metars.cache.csv.gz
Observed at (1 day ago)
Identifier HEAT
HEAT 301700Z 03012KT CAVOK 38/09 Q1012 NOSIG
From batch tds/metars/production/2022/9/30/h17_m49_metars.cache.csv.gz
Observed at (1 day ago)
Identifier HEAT
HEAT 301600Z 06012KT CAVOK 40/08 Q1011 NOSIG
From batch tds/metars/production/2022/9/30/h16_m52_metars.cache.csv.gz
Observed at (1 day ago)
Identifier HEAT
HEAT 301500Z 05014KT CAVOK 41/08 Q1011 NOSIG
From batch tds/metars/production/2022/9/30/h15_m24_metars.cache.csv.gz
Observed at (1 day ago)
Identifier HEAT
HEAT 301400Z 06016KT CAVOK 42/07 Q1011 NOSIG
From batch tds/metars/production/2022/9/30/h14_m27_metars.cache.csv.gz
Observed at (1 day ago)
Identifier HEAT
HEAT 301300Z 05015KT CAVOK 42/07 Q1012 NOSIG
From batch tds/metars/production/2022/9/30/h13_m59_metars.cache.csv.gz
Observed at (1 day ago)
Identifier HEAT
HEAT 301200Z 06016KT CAVOK 41/08 Q1012 NOSIG
From batch tds/metars/production/2022/9/30/h12_m59_metars.cache.csv.gz
Observed at (2 days ago)
Identifier HEAT
HEAT 301100Z 06012KT CAVOK 40/10 Q1013 NOSIG
From batch tds/metars/production/2022/9/30/h11_m59_metars.cache.csv.gz
Observed at (2 days ago)
Identifier HEAT
HEAT 301000Z 03012KT CAVOK 38/10 Q1014 NOSIG
From batch tds/metars/production/2022/9/30/h10_m20_metars.cache.csv.gz
Observed at (2 days ago)
Identifier HEAT
HEAT 300800Z 34002KT CAVOK 32/10 Q1014 NOSIG
From batch tds/metars/production/2022/9/30/h08_m21_metars.cache.csv.gz
Observed at (2 days ago)
Identifier HEAT
HEAT 300700Z 35003KT CAVOK 30/10 Q1014 NOSIG
From batch tds/metars/production/2022/9/30/h07_m29_metars.cache.csv.gz
Observed at (2 days ago)
Identifier HEAT
HEAT 300600Z 35033KT CAVOK 29/10 Q1013 NOSIG
From batch tds/metars/production/2022/9/30/h06_m59_metars.cache.csv.gz
Observed at (2 days ago)
Identifier HEAT
HEAT 300500Z 04002KT CAVOK 28/09 Q1012 NOSIG
From batch tds/metars/production/2022/9/30/h05_m23_metars.cache.csv.gz
Observed at (2 days ago)
Identifier HEAT
HEAT 300400Z 05003KT CAVOK 27/09 Q1012 NOSIG
From batch tds/metars/production/2022/9/30/h04_m50_metars.cache.csv.gz
Observed at (2 days ago)
Identifier HEAT
HEAT 300300Z 04003KT CAVOK 27/09 Q1012 NOSIG
From batch tds/metars/production/2022/9/30/h03_m59_metars.cache.csv.gz
Observed at (2 days ago)
Identifier HEAT
HEAT 300200Z 06006KT CAVOK 27/10 Q1012 NOSIG
From batch tds/metars/production/2022/9/30/h02_m29_metars.cache.csv.gz
Observed at (2 days ago)
Identifier HEAT
HEAT 300100Z 05006KT CAVOK 28/09 Q1011 NOSIG
From batch tds/metars/production/2022/9/30/h01_m27_metars.cache.csv.gz
Observed at (2 days ago)
Identifier HEAT
HEAT 292300Z 06005KT CAVOK 28/07 Q1013
From batch tds/metars/production/2022/9/29/h23_m29_metars.cache.csv.gz
Observed at (2 days ago)
Identifier HEAT
HEAT 292100Z 05005KT CAVOK 30/09 Q1012 NOSIG
From batch tds/metars/production/2022/9/29/h21_m51_metars.cache.csv.gz
Observed at (2 days ago)
Identifier HEAT
HEAT 292000Z 36004KT CAVOK 31/06 Q1011 NOSIG
From batch tds/metars/production/2022/9/29/h20_m23_metars.cache.csv.gz
Observed at (2 days ago)
Identifier HEAT
HEAT 291900Z 35003KT CAVOK 33/05 Q1011 NOSIG
From batch tds/metars/production/2022/9/29/h19_m59_metars.cache.csv.gz
Observed at (2 days ago)
Identifier HEAT
HEAT 291700Z 07005KT CAVOK 37/07 Q1011 NOSIG
From batch tds/metars/production/2022/9/29/h17_m22_metars.cache.csv.gz
Observed at (3 days ago)
Identifier HEAT
HEAT 291600Z 08004KT CAVOK 38/06 Q1010 NOSIG
From batch tds/metars/production/2022/9/29/h16_m24_metars.cache.csv.gz
Observed at (3 days ago)
Identifier HEAT
HEAT 291500Z 08005KT CAVOK 39/06 Q1010 NOSIG
From batch tds/metars/production/2022/9/29/h15_m29_metars.cache.csv.gz
Observed at (3 days ago)
Identifier HEAT
talk